createdAt,value
2023-05-12T00:00:06.522Z,642.40
2023-05-12T00:01:06.474Z,648.50
2023-05-12T00:02:06.454Z,649.40
2023-05-12T00:03:06.607Z,656.20
2023-05-12T00:04:06.569Z,645.50
2023-05-12T00:05:06.458Z,646.40
2023-05-12T00:06:06.438Z,640.50
2023-05-12T00:07:06.399Z,645.40
2023-05-12T00:08:06.400Z,635.90
2023-05-12T00:09:06.386Z,659.70
2023-05-12T00:10:06.419Z,647.80
2023-05-12T00:11:06.362Z,648.20
2023-05-12T00:12:06.351Z,638.50
2023-05-12T00:13:06.351Z,634.50
2023-05-12T00:14:06.437Z,660.10
2023-05-12T00:15:06.368Z,633.40
2023-05-12T00:16:06.364Z,630.30
2023-05-12T00:17:06.325Z,618.00
2023-05-12T00:18:06.353Z,630.20
2023-05-12T00:19:06.455Z,618.30
2023-05-12T00:20:06.293Z,605.10
2023-05-12T00:21:06.252Z,601.90
2023-05-12T00:22:06.263Z,646.30
2023-05-12T00:23:06.237Z,630.30
2023-05-12T00:24:06.237Z,574.80
2023-05-12T00:25:06.169Z,561.30
2023-05-12T00:26:06.160Z,586.30
2023-05-12T00:27:06.183Z,546.70
2023-05-12T00:28:06.196Z,539.30
2023-05-12T00:29:06.185Z,485.10
2023-05-12T00:30:06.143Z,518.90
2023-05-12T00:31:06.194Z,539.40
2023-05-12T00:32:06.112Z,527.40
2023-05-12T00:33:06.284Z,530.40
2023-05-12T00:34:06.103Z,498.40
2023-05-12T00:35:06.076Z,489.70
2023-05-12T00:36:06.073Z,539.90
2023-05-12T00:37:06.066Z,532.40
2023-05-12T00:38:06.083Z,498.10
2023-05-12T00:39:06.058Z,504.20
2023-05-12T00:40:06.053Z,507.60
2023-05-12T00:41:06.023Z,536.30
2023-05-12T00:42:06.046Z,518.60
2023-05-12T00:43:06.038Z,520.10
2023-05-12T00:44:05.978Z,558.20
2023-05-12T00:45:05.993Z,550.60
2023-05-12T00:46:06.008Z,575.90
2023-05-12T00:47:05.985Z,536.90
2023-05-12T00:48:05.957Z,533.10
2023-05-12T00:49:05.948Z,563.50
2023-05-12T00:50:05.923Z,528.40
2023-05-12T00:51:05.883Z,545.10
2023-05-12T00:52:05.933Z,527.10
2023-05-12T00:53:05.894Z,549.50
2023-05-12T00:54:05.882Z,539.40
2023-05-12T00:55:05.873Z,567.10
2023-05-12T00:56:05.881Z,550.50
2023-05-12T00:57:05.857Z,533.80
2023-05-12T00:58:05.836Z,550.60
2023-05-12T00:59:05.826Z,576.80
2023-05-12T01:00:05.803Z,558.40
2023-05-12T01:01:05.869Z,560.40
2023-05-12T01:02:05.854Z,537.00
2023-05-12T01:03:05.959Z,556.80
2023-05-12T01:04:05.757Z,561.80
2023-05-12T01:05:05.744Z,550.30
2023-05-12T01:06:05.787Z,495.70
2023-05-12T01:07:05.792Z,528.50
2023-05-12T01:08:05.719Z,542.50
2023-05-12T01:09:05.717Z,530.60
2023-05-12T01:10:05.714Z,526.30
2023-05-12T01:11:05.729Z,534.40
2023-05-12T01:12:05.700Z,547.40
2023-05-12T01:13:05.656Z,554.00
2023-05-12T01:14:05.646Z,483.90
2023-05-12T01:15:05.711Z,510.20
2023-05-12T01:16:05.662Z,521.70
2023-05-12T01:17:05.638Z,544.90
2023-05-12T01:18:05.716Z,537.80
2023-05-12T01:19:05.638Z,500.30
2023-05-12T01:20:05.624Z,494.90
2023-05-12T01:21:05.586Z,489.20
2023-05-12T01:22:05.588Z,496.40
2023-05-12T01:23:05.565Z,479.30
2023-05-12T01:24:05.525Z,494.30
2023-05-12T01:25:05.575Z,537.20
2023-05-12T01:26:05.617Z,475.70
2023-05-12T01:27:05.485Z,482.60
2023-05-12T01:28:05.536Z,519.20
2023-05-12T01:29:05.543Z,513.30
2023-05-12T01:30:05.535Z,481.10
2023-05-12T01:31:05.518Z,492.30
2023-05-12T01:32:05.472Z,504.40
2023-05-12T01:33:05.476Z,510.90
2023-05-12T01:34:05.476Z,533.30
2023-05-12T01:35:05.442Z,532.90
2023-05-12T01:36:05.398Z,535.80
2023-05-12T01:37:05.391Z,531.00
2023-05-12T01:38:05.408Z,535.60
2023-05-12T01:39:05.416Z,546.70
2023-05-12T01:40:05.352Z,540.40
2023-05-12T01:41:05.344Z,544.30
2023-05-12T01:42:05.347Z,567.60
2023-05-12T01:43:05.364Z,547.30
2023-05-12T01:44:05.328Z,579.10
2023-05-12T01:45:05.315Z,566.50
2023-05-12T01:46:05.325Z,551.00
2023-05-12T01:47:05.285Z,578.80
2023-05-12T01:48:05.327Z,566.30
2023-05-12T01:49:06.100Z,564.90
2023-05-12T01:50:05.256Z,582.40
2023-05-12T01:51:05.244Z,601.00
2023-05-12T01:52:05.228Z,582.60
2023-05-12T01:53:05.252Z,595.10
2023-05-12T01:54:05.245Z,595.70
2023-05-12T01:55:05.191Z,591.10
2023-05-12T01:56:05.167Z,603.70
2023-05-12T01:57:05.185Z,600.20
2023-05-12T01:58:05.174Z,606.80
2023-05-12T01:59:05.269Z,621.70
2023-05-12T02:00:05.137Z,630.40
2023-05-12T02:01:05.130Z,626.30
2023-05-12T02:02:05.153Z,623.10
2023-05-12T02:03:05.182Z,616.80
2023-05-12T02:04:05.206Z,620.90
2023-05-12T02:05:05.116Z,618.40
2023-05-12T02:06:05.067Z,628.70
2023-05-12T02:07:05.108Z,622.60
2023-05-12T02:08:05.043Z,630.10
2023-05-12T02:09:05.039Z,639.50
2023-05-12T02:10:05.044Z,633.50
2023-05-12T02:11:05.062Z,635.10
2023-05-12T02:12:05.045Z,625.80
2023-05-12T02:13:04.997Z,622.90
2023-05-12T02:14:04.994Z,628.60
2023-05-12T02:15:04.961Z,640.90
2023-05-12T02:16:05.068Z,641.30
2023-05-12T02:17:04.936Z,629.90
2023-05-12T02:18:04.962Z,627.20
2023-05-12T02:19:05.078Z,643.70
2023-05-12T02:20:04.895Z,623.80
2023-05-12T02:21:04.931Z,635.30
2023-05-12T02:22:04.883Z,648.50
2023-05-12T02:23:04.889Z,648.50
2023-05-12T02:24:04.862Z,654.10
2023-05-12T02:25:04.876Z,657.70
2023-05-12T02:26:04.855Z,641.40
2023-05-12T02:27:04.800Z,616.60
2023-05-12T02:28:04.820Z,639.30
2023-05-12T02:29:04.791Z,630.10
2023-05-12T02:30:04.826Z,632.90
2023-05-12T02:31:04.773Z,644.80
2023-05-12T02:32:04.888Z,639.90
2023-05-12T02:33:04.814Z,631.10
2023-05-12T02:34:06.621Z,624.90
2023-05-12T02:35:04.794Z,622.50
2023-05-12T02:36:04.739Z,617.70
2023-05-12T02:37:04.731Z,615.90
2023-05-12T02:38:04.698Z,634.00
2023-05-12T02:39:04.737Z,619.90
2023-05-12T02:40:04.724Z,621.20
2023-05-12T02:41:04.703Z,611.40
2023-05-12T02:42:04.645Z,610.60
2023-05-12T02:43:04.624Z,597.80
2023-05-12T02:44:04.665Z,631.20
2023-05-12T02:45:04.621Z,614.40
2023-05-12T02:46:04.678Z,609.60
2023-05-12T02:47:04.611Z,618.20
2023-05-12T02:48:04.650Z,626.50
2023-05-12T02:49:04.629Z,616.30
2023-05-12T02:50:04.567Z,616.00
2023-05-12T02:51:04.563Z,628.60
2023-05-12T02:52:04.547Z,602.40
2023-05-12T02:53:04.533Z,597.10
2023-05-12T02:54:04.584Z,608.00
2023-05-12T02:55:04.507Z,597.00
2023-05-12T02:56:04.488Z,594.10
2023-05-12T02:57:04.480Z,607.10
2023-05-12T02:58:04.508Z,607.70
2023-05-12T02:59:04.461Z,595.90
2023-05-12T03:00:04.467Z,606.10
2023-05-12T03:01:10.866Z,205.80
2023-05-12T03:02:05.606Z,116.60
2023-05-12T03:03:04.525Z,92.30
2023-05-12T03:04:04.403Z,386.10
2023-05-12T03:05:04.404Z,597.50
2023-05-12T03:06:04.384Z,586.70
2023-05-12T03:07:04.403Z,588.40
2023-05-12T03:08:04.415Z,590.00
2023-05-12T03:09:04.332Z,623.80
2023-05-12T03:10:04.346Z,605.30
2023-05-12T03:11:04.348Z,603.30
2023-05-12T03:12:04.365Z,613.60
2023-05-12T03:13:04.304Z,612.10
2023-05-12T03:14:04.316Z,631.80
2023-05-12T03:15:04.276Z,652.90
2023-05-12T03:16:04.310Z,649.60
2023-05-12T03:17:04.345Z,659.50
2023-05-12T03:18:04.311Z,660.40
2023-05-12T03:19:04.268Z,663.80
2023-05-12T03:20:04.230Z,654.20
2023-05-12T03:21:04.234Z,658.90
2023-05-12T03:22:04.197Z,656.70
2023-05-12T03:23:04.178Z,641.00
2023-05-12T03:24:04.168Z,648.70
2023-05-12T03:25:04.163Z,646.50
2023-05-12T03:26:04.203Z,648.60
2023-05-12T03:27:04.178Z,629.40
2023-05-12T03:28:04.148Z,614.10
2023-05-12T03:29:04.142Z,130.20
2023-05-12T03:30:04.142Z,494.20
2023-05-12T03:31:04.206Z,202.90
2023-05-12T03:32:04.108Z,349.00
2023-05-12T03:33:04.133Z,196.40
2023-05-12T03:34:04.089Z,287.10
2023-05-12T03:35:04.103Z,704.60
2023-05-12T03:36:04.049Z,190.10
2023-05-12T03:37:04.045Z,697.10
2023-05-12T03:38:04.052Z,678.90
2023-05-12T03:39:04.000Z,649.50
2023-05-12T03:40:04.046Z,642.80
2023-05-12T03:41:03.992Z,235.20
2023-05-12T03:42:03.987Z,482.70
2023-05-12T03:43:03.986Z,230.20
2023-05-12T03:44:03.959Z,222.80
2023-05-12T03:45:03.987Z,413.50
2023-05-12T03:46:04.149Z,191.70
2023-05-12T03:47:04.025Z,701.30
2023-05-12T03:48:03.953Z,681.10
2023-05-12T03:49:04.032Z,666.50
2023-05-12T03:50:03.904Z,643.40
2023-05-12T03:51:03.857Z,641.60
2023-05-12T03:52:03.861Z,639.80
2023-05-12T03:53:03.856Z,625.80
2023-05-12T03:54:03.865Z,630.00
2023-05-12T03:55:03.819Z,447.00
2023-05-12T03:56:03.833Z,192.20
2023-05-12T03:57:03.810Z,206.00
2023-05-12T03:58:03.848Z,192.10
2023-05-12T03:59:03.804Z,667.00
2023-05-12T04:00:03.782Z,185.80
2023-05-12T04:01:03.749Z,372.90
2023-05-12T04:02:03.800Z,638.10
2023-05-12T04:03:03.831Z,181.30
2023-05-12T04:04:03.811Z,662.50
2023-05-12T04:05:03.717Z,629.70
2023-05-12T04:06:03.716Z,590.40
2023-05-12T04:07:03.712Z,349.10
2023-05-12T04:08:03.744Z,635.70
2023-05-12T04:09:03.663Z,236.60
2023-05-12T04:10:03.687Z,613.10
2023-05-12T04:11:03.679Z,605.60
2023-05-12T04:12:03.685Z,609.20
2023-05-12T04:13:03.691Z,603.10
2023-05-12T04:14:03.617Z,594.20
2023-05-12T04:15:03.617Z,360.00
2023-05-12T04:16:03.626Z,397.30
2023-05-12T04:17:03.636Z,235.60
2023-05-12T04:18:03.608Z,428.40
2023-05-12T04:19:03.740Z,590.20
2023-05-12T04:20:03.560Z,572.80
2023-05-12T04:21:03.587Z,545.60
2023-05-12T04:22:03.567Z,526.10
2023-05-12T04:23:03.539Z,153.90
2023-05-12T04:24:03.492Z,410.70
2023-05-12T04:25:03.480Z,161.30
2023-05-12T04:26:03.503Z,170.00
2023-05-12T04:27:03.483Z,316.90
2023-05-12T04:28:03.467Z,554.00
2023-05-12T04:29:03.471Z,569.20
2023-05-12T04:30:03.464Z,622.10
2023-05-12T04:31:03.476Z,642.30
2023-05-12T04:32:03.498Z,670.00
2023-05-12T04:33:03.479Z,610.30
2023-05-12T04:34:03.431Z,90.00
2023-05-12T04:35:03.393Z,206.90
2023-05-12T04:36:03.404Z,735.30
2023-05-12T04:37:03.368Z,725.40
2023-05-12T04:38:03.469Z,98.90
2023-05-12T04:39:03.347Z,93.20
2023-05-12T04:40:03.377Z,99.60
2023-05-12T04:41:03.356Z,709.00
2023-05-12T04:42:03.297Z,640.60
2023-05-12T04:43:03.302Z,72.90
2023-05-12T04:44:03.301Z,346.10
2023-05-12T04:45:03.309Z,551.00
2023-05-12T04:46:03.283Z,524.10
2023-05-12T04:47:03.254Z,487.50
2023-05-12T04:48:03.296Z,63.90
2023-05-12T04:49:03.223Z,88.40
2023-05-12T04:50:03.253Z,118.10
2023-05-12T04:51:03.201Z,132.10
2023-05-12T04:52:03.203Z,157.50
2023-05-12T04:53:03.164Z,168.70
2023-05-12T04:54:03.155Z,186.80
2023-05-12T04:55:03.184Z,209.80
2023-05-12T04:56:03.150Z,306.00
2023-05-12T04:57:03.137Z,133.50
2023-05-12T04:58:03.135Z,153.90
2023-05-12T04:59:03.153Z,159.70
2023-05-12T05:00:03.147Z,148.10
2023-05-12T05:01:03.100Z,141.70
2023-05-12T05:02:03.083Z,420.10
2023-05-12T05:03:03.117Z,85.20
2023-05-12T05:04:03.121Z,115.60
2023-05-12T05:05:03.024Z,113.50
2023-05-12T05:06:03.064Z,113.80
2023-05-12T05:07:03.036Z,118.30
2023-05-12T05:08:03.084Z,139.40
2023-05-12T05:09:03.023Z,121.70
2023-05-12T05:10:03.009Z,126.40
2023-05-12T05:11:02.982Z,127.90
2023-05-12T05:12:02.971Z,129.00
2023-05-12T05:13:03.004Z,113.00
2023-05-12T05:14:02.944Z,115.30
2023-05-12T05:15:02.949Z,130.40
2023-05-12T05:16:02.977Z,114.60
2023-05-12T05:17:02.902Z,115.20
2023-05-12T05:18:03.019Z,135.30
2023-05-12T05:19:06.500Z,113.70
2023-05-12T05:20:09.492Z,95.00
2023-05-12T05:21:03.894Z,84.20
2023-05-12T05:22:02.831Z,101.30
2023-05-12T05:23:02.863Z,78.20
2023-05-12T05:24:02.845Z,72.60
2023-05-12T05:25:02.850Z,71.40
2023-05-12T05:26:02.827Z,72.80
2023-05-12T05:27:02.821Z,68.10
2023-05-12T05:28:02.830Z,72.80
2023-05-12T05:29:02.784Z,91.30
2023-05-12T05:30:02.779Z,80.50
2023-05-12T05:31:02.766Z,93.50
2023-05-12T05:32:02.782Z,63.50
2023-05-12T05:33:02.905Z,147.20
2023-05-12T05:34:02.792Z,40.00
2023-05-12T05:35:02.693Z,50.00
2023-05-12T05:36:02.728Z,52.60
2023-05-12T05:37:02.745Z,53.70
2023-05-12T05:38:02.690Z,47.60
2023-05-12T05:39:02.661Z,43.90
2023-05-12T05:40:02.652Z,40.30
2023-05-12T05:41:02.650Z,58.70
2023-05-12T05:42:02.678Z,51.90
2023-05-12T05:43:02.646Z,42.30
2023-05-12T05:44:02.643Z,45.00
2023-05-12T05:45:02.627Z,39.70
2023-05-12T05:46:02.622Z,47.90
2023-05-12T05:47:02.665Z,51.90
2023-05-12T05:48:02.578Z,63.60
2023-05-12T05:49:02.544Z,50.20
2023-05-12T05:50:02.574Z,60.20
2023-05-12T05:51:02.555Z,78.60
2023-05-12T05:52:02.502Z,57.00
2023-05-12T05:53:02.508Z,56.90
2023-05-12T05:54:02.486Z,56.10
2023-05-12T05:55:02.499Z,38.50
2023-05-12T05:56:02.520Z,35.30
2023-05-12T05:57:02.461Z,32.70
2023-05-12T05:58:02.493Z,30.40
2023-05-12T05:59:02.453Z,28.60
2023-05-12T06:00:02.458Z,29.70
2023-05-12T06:01:02.465Z,30.60
2023-05-12T06:02:02.432Z,31.40
2023-05-12T06:03:02.462Z,33.00
2023-05-12T06:04:02.573Z,41.00
2023-05-12T06:05:02.401Z,46.30
2023-05-12T06:06:02.390Z,47.60
2023-05-12T06:07:02.355Z,47.20
2023-05-12T06:08:02.352Z,53.90
2023-05-12T06:09:02.349Z,51.20
2023-05-12T06:10:02.352Z,60.70
2023-05-12T06:11:02.301Z,56.90
2023-05-12T06:12:02.300Z,65.80
2023-05-12T06:13:02.291Z,68.60
2023-05-12T06:14:02.268Z,56.40
2023-05-12T06:15:02.288Z,45.00
2023-05-12T06:16:02.272Z,40.20
2023-05-12T06:17:02.315Z,40.70
2023-05-12T06:18:02.310Z,37.40
2023-05-12T06:19:02.324Z,43.70
2023-05-12T06:20:02.231Z,37.70
2023-05-12T06:21:02.156Z,32.80
2023-05-12T06:22:02.177Z,30.80
2023-05-12T06:23:02.166Z,30.90
2023-05-12T06:24:02.202Z,29.50
2023-05-12T06:25:02.147Z,28.70
2023-05-12T06:26:02.137Z,29.70
2023-05-12T06:27:02.148Z,31.40
2023-05-12T06:28:02.117Z,29.80
2023-05-12T06:29:02.151Z,28.60
2023-05-12T06:30:02.105Z,28.10
2023-05-12T06:31:02.090Z,28.60
2023-05-12T06:32:02.156Z,27.50
2023-05-12T06:33:02.113Z,27.50
2023-05-12T06:34:02.060Z,27.00
2023-05-12T06:35:02.018Z,37.10
2023-05-12T06:36:02.038Z,29.70
2023-05-12T06:37:02.011Z,30.60
2023-05-12T06:38:02.030Z,30.90
2023-05-12T06:39:02.050Z,30.90
2023-05-12T06:40:01.988Z,30.90
2023-05-12T06:41:01.972Z,32.50
2023-05-12T06:42:01.948Z,31.70
2023-05-12T06:43:01.952Z,32.50
2023-05-12T06:44:01.921Z,34.80
2023-05-12T06:45:01.952Z,35.10
2023-05-12T06:46:01.921Z,36.80
2023-05-12T06:47:01.872Z,34.60
2023-05-12T06:48:01.979Z,37.90
2023-05-12T06:49:01.878Z,36.90
2023-05-12T06:50:01.857Z,37.70
2023-05-12T06:51:01.845Z,36.20
2023-05-12T06:52:01.881Z,37.60
2023-05-12T06:53:01.897Z,40.20
2023-05-12T06:54:01.840Z,36.30
2023-05-12T06:55:01.814Z,35.60
2023-05-12T06:56:01.806Z,34.90
2023-05-12T06:57:01.832Z,36.20
2023-05-12T06:58:01.800Z,36.00
2023-05-12T06:59:01.752Z,42.40
2023-05-12T07:00:01.761Z,39.00
2023-05-12T07:01:01.773Z,42.80
2023-05-12T07:02:01.862Z,40.80
2023-05-12T07:03:01.800Z,38.00
2023-05-12T07:04:01.774Z,44.30
2023-05-12T07:05:01.679Z,43.50
2023-05-12T07:06:01.772Z,37.60
2023-05-12T07:07:01.716Z,40.30
2023-05-12T07:08:01.668Z,38.60
2023-05-12T07:09:01.694Z,40.50
2023-05-12T07:10:01.644Z,42.50
2023-05-12T07:11:01.697Z,45.80
2023-05-12T07:12:01.621Z,47.00
2023-05-12T07:13:01.615Z,49.30
2023-05-12T07:14:01.579Z,53.10
2023-05-12T07:15:01.590Z,54.60
2023-05-12T07:16:01.675Z,49.30
2023-05-12T07:17:01.576Z,56.70
2023-05-12T07:18:01.558Z,59.20
2023-05-12T07:19:01.610Z,53.70
2023-05-12T07:20:01.521Z,57.80
2023-05-12T07:21:01.556Z,54.70
2023-05-12T07:22:01.508Z,58.00
2023-05-12T07:23:01.490Z,56.00
2023-05-12T07:24:01.470Z,54.90
2023-05-12T07:25:01.510Z,58.40
2023-05-12T07:26:01.473Z,51.20
2023-05-12T07:27:01.442Z,52.30
2023-05-12T07:28:01.447Z,57.20
2023-05-12T07:29:01.486Z,56.80
2023-05-12T07:30:01.427Z,58.80
2023-05-12T07:31:01.444Z,60.40
2023-05-12T07:32:01.381Z,60.60
2023-05-12T07:33:01.485Z,62.40
2023-05-12T07:34:01.385Z,70.40
2023-05-12T07:35:01.411Z,58.70
2023-05-12T07:36:01.348Z,50.20
2023-05-12T07:37:01.306Z,52.90
2023-05-12T07:38:01.312Z,52.00
2023-05-12T07:39:01.353Z,49.70
2023-05-12T07:40:01.333Z,48.60
2023-05-12T07:41:01.303Z,53.90
2023-05-12T07:42:01.285Z,51.40
2023-05-12T07:43:01.314Z,46.00
2023-05-12T07:44:01.271Z,49.10
2023-05-12T07:45:01.252Z,50.20
2023-05-12T07:46:01.229Z,47.70
2023-05-12T07:47:01.203Z,55.80
2023-05-12T07:48:01.318Z,91.80
2023-05-12T07:49:01.229Z,51.70
2023-05-12T07:50:01.215Z,50.70
2023-05-12T07:51:01.193Z,50.90
2023-05-12T07:52:01.165Z,50.40
2023-05-12T07:53:01.237Z,45.80
2023-05-12T07:54:01.163Z,61.30
2023-05-12T07:55:01.122Z,46.20
2023-05-12T07:56:01.169Z,48.10
2023-05-12T07:57:01.114Z,47.30
2023-05-12T07:58:01.129Z,40.80
2023-05-12T07:59:01.116Z,43.60
2023-05-12T08:00:01.083Z,44.30
2023-05-12T08:01:01.093Z,44.40
2023-05-12T08:02:01.117Z,43.50
2023-05-12T08:03:01.358Z,43.00
2023-05-12T08:04:01.159Z,46.70
2023-05-12T08:05:01.067Z,55.60
2023-05-12T08:06:01.085Z,48.80
2023-05-12T08:07:01.083Z,57.30
2023-05-12T08:08:00.990Z,64.10
2023-05-12T08:09:01.006Z,84.20
2023-05-12T08:10:00.964Z,85.10
2023-05-12T08:11:00.961Z,87.00
2023-05-12T08:12:00.977Z,57.60
2023-05-12T08:13:00.959Z,45.80
2023-05-12T08:14:00.932Z,59.60
2023-05-12T08:15:00.918Z,54.80
2023-05-12T08:16:00.948Z,58.90
2023-05-12T08:17:00.968Z,60.40
2023-05-12T08:18:00.988Z,50.10
2023-05-12T08:19:00.926Z,40.80
2023-05-12T08:20:00.896Z,46.00
2023-05-12T08:21:00.897Z,49.70
2023-05-12T08:22:00.833Z,57.50
2023-05-12T08:23:01.092Z,63.90
2023-05-12T08:24:00.807Z,58.20
2023-05-12T08:25:00.849Z,51.00
2023-05-12T08:26:00.856Z,58.50
2023-05-12T08:27:00.788Z,64.10
2023-05-12T08:28:00.775Z,41.80
2023-05-12T08:29:00.743Z,38.50
2023-05-12T08:30:00.741Z,42.20
2023-05-12T08:31:03.324Z,45.90
2023-05-12T08:32:00.771Z,34.60
2023-05-12T08:33:00.749Z,29.20
2023-05-12T08:34:09.749Z,31.40
2023-05-12T08:35:01.761Z,38.30
2023-05-12T08:36:00.742Z,33.50
2023-05-12T08:37:00.656Z,30.80
2023-05-12T08:38:00.642Z,30.20
2023-05-12T08:39:00.673Z,30.20
2023-05-12T08:40:00.689Z,32.80
2023-05-12T08:41:00.641Z,32.30
2023-05-12T08:42:00.594Z,31.60
2023-05-12T08:43:01.854Z,33.00
2023-05-12T08:44:00.624Z,41.80
2023-05-12T08:45:00.624Z,47.70
2023-05-12T08:46:00.586Z,41.70
2023-05-12T08:47:00.627Z,51.30
2023-05-12T08:48:00.658Z,51.80
2023-05-12T08:49:00.607Z,63.00
2023-05-12T08:50:00.516Z,44.30
2023-05-12T08:51:00.531Z,49.50
2023-05-12T08:52:00.531Z,46.20
2023-05-12T08:53:00.495Z,43.10
2023-05-12T08:54:00.540Z,42.10
2023-05-12T08:55:01.030Z,42.70
2023-05-12T08:58:00.502Z,39.10
2023-05-12T08:59:00.481Z,35.70
2023-05-12T09:00:00.438Z,40.40
2023-05-12T09:01:00.448Z,41.30
2023-05-12T09:02:00.413Z,33.20
2023-05-12T09:03:00.475Z,30.20
2023-05-12T09:04:00.418Z,34.10
2023-05-12T09:05:00.511Z,29.60
2023-05-12T09:06:00.349Z,31.80
2023-05-12T09:07:00.382Z,38.90
2023-05-12T09:08:00.390Z,29.60
2023-05-12T09:09:00.333Z,30.30
2023-05-12T09:10:00.318Z,41.10
2023-05-12T09:11:00.314Z,47.50
2023-05-12T09:12:00.302Z,35.20
2023-05-12T09:13:00.321Z,31.60
2023-05-12T09:14:00.335Z,35.30
2023-05-12T09:15:00.246Z,32.20
2023-05-12T09:16:00.274Z,33.60
2023-05-12T09:17:00.318Z,54.10
2023-05-12T09:18:00.343Z,33.40
2023-05-12T09:19:00.254Z,43.60
2023-05-12T09:20:00.217Z,34.70
2023-05-12T09:21:00.203Z,35.00
2023-05-12T09:22:00.212Z,34.90
2023-05-12T09:23:00.209Z,37.40
2023-05-12T09:24:00.205Z,34.60
2023-05-12T09:25:00.160Z,33.90
2023-05-12T09:26:00.180Z,34.20
2023-05-12T09:27:00.192Z,34.00
2023-05-12T09:28:00.150Z,32.70
2023-05-12T09:29:00.139Z,34.70
2023-05-12T09:30:00.154Z,35.00
2023-05-12T09:31:00.157Z,37.40
2023-05-12T09:32:00.277Z,35.90
2023-05-12T09:33:00.177Z,33.20
2023-05-12T09:34:00.079Z,49.30
2023-05-12T09:35:00.047Z,37.80
2023-05-12T09:36:00.135Z,36.70
2023-05-12T09:37:00.023Z,34.30
2023-05-12T09:38:00.006Z,33.00
2023-05-12T09:39:00.012Z,32.90
2023-05-12T09:40:00.000Z,38.10
2023-05-12T09:41:00.023Z,32.40
2023-05-12T09:41:59.991Z,34.30
2023-05-12T09:42:59.932Z,31.30
2023-05-12T09:43:59.943Z,32.50
2023-05-12T09:44:59.937Z,29.90
2023-05-12T09:45:59.991Z,28.30
2023-05-12T09:46:59.902Z,28.90
2023-05-12T09:47:59.985Z,30.40
2023-05-12T09:48:59.918Z,28.10
2023-05-12T09:49:59.939Z,31.70
2023-05-12T09:50:59.922Z,31.40
2023-05-12T09:51:59.869Z,32.90
2023-05-12T09:52:59.855Z,31.60
2023-05-12T09:53:59.841Z,30.80
2023-05-12T09:54:59.831Z,31.30
2023-05-12T09:55:59.803Z,27.60
2023-05-12T09:56:59.877Z,46.80
2023-05-12T09:57:59.816Z,31.50
2023-05-12T09:58:59.784Z,30.00
2023-05-12T09:59:59.812Z,31.10
2023-05-12T10:01:21.006Z,29.60
2023-05-12T10:02:00.877Z,28.60
2023-05-12T10:02:59.805Z,30.70
2023-05-12T10:03:59.803Z,30.20
2023-05-12T10:04:59.767Z,31.50
2023-05-12T10:05:59.710Z,31.70
2023-05-12T10:06:59.730Z,72.00
2023-05-12T10:07:59.718Z,31.00
2023-05-12T10:08:59.718Z,33.00
2023-05-12T10:09:59.689Z,35.40
2023-05-12T10:10:59.679Z,35.00
2023-05-12T10:11:59.625Z,35.40
2023-05-12T10:12:59.677Z,33.20
2023-05-12T10:13:59.672Z,33.20
2023-05-12T10:14:59.640Z,32.40
2023-05-12T10:15:59.585Z,33.50
2023-05-12T10:16:59.712Z,36.70
2023-05-12T10:17:59.572Z,37.50
2023-05-12T10:18:59.658Z,33.40
2023-05-12T10:19:59.581Z,44.20
2023-05-12T10:20:59.554Z,32.60
2023-05-12T10:21:59.543Z,32.50
2023-05-12T10:22:59.523Z,37.30
2023-05-12T10:23:59.558Z,45.40
2023-05-12T10:24:59.490Z,42.40
2023-05-12T10:25:59.473Z,36.80
2023-05-12T10:26:59.780Z,32.30
2023-05-12T10:27:59.539Z,32.90
2023-05-12T10:28:59.493Z,37.40
2023-05-12T10:29:59.460Z,32.30
2023-05-12T10:30:59.461Z,35.10
2023-05-12T10:31:59.424Z,33.60
2023-05-12T10:32:59.561Z,33.80
2023-05-12T10:33:59.438Z,32.10
2023-05-12T10:35:00.769Z,36.00
2023-05-12T10:35:59.377Z,40.30
2023-05-12T10:36:59.394Z,30.80
2023-05-12T10:37:59.485Z,28.60
2023-05-12T10:38:59.454Z,34.10
2023-05-12T10:39:59.366Z,28.90
2023-05-12T10:40:59.349Z,32.10
2023-05-12T10:41:59.306Z,26.50
2023-05-12T10:42:59.349Z,26.30
2023-05-12T10:43:59.329Z,25.70
2023-05-12T10:44:59.281Z,29.90
2023-05-12T10:45:59.299Z,24.20
2023-05-12T10:46:59.337Z,26.10
2023-05-12T10:47:59.359Z,28.30
2023-05-12T10:48:59.260Z,29.90
2023-05-12T10:49:59.266Z,25.00
2023-05-12T10:50:59.226Z,32.90
2023-05-12T10:51:59.264Z,25.90
2023-05-12T10:52:59.224Z,27.00
2023-05-12T10:53:59.224Z,26.90
2023-05-12T10:54:59.213Z,30.70
2023-05-12T10:55:59.418Z,25.30
2023-05-12T10:56:59.452Z,31.20
2023-05-12T10:57:59.369Z,26.00
2023-05-12T10:58:59.309Z,24.40
2023-05-12T10:59:59.823Z,25.70
2023-05-12T11:00:59.615Z,26.20
2023-05-12T11:01:59.505Z,29.60
2023-05-12T11:03:04.092Z,29.00
2023-05-12T11:04:00.283Z,27.40
2023-05-12T11:04:59.308Z,30.20
2023-05-12T11:05:59.287Z,28.50
2023-05-12T11:06:59.541Z,26.40
2023-05-12T11:07:59.196Z,27.30
2023-05-12T11:08:59.290Z,26.60
2023-05-12T11:10:01.229Z,28.20
2023-05-12T11:10:59.415Z,37.00
2023-05-12T11:11:59.457Z,35.60
2023-05-12T11:12:58.977Z,30.40
2023-05-12T11:13:58.976Z,29.30
2023-05-12T11:14:59.010Z,29.30
2023-05-12T11:15:59.068Z,28.90
2023-05-12T11:16:58.986Z,33.30
2023-05-12T11:17:58.978Z,29.20
2023-05-12T11:18:58.977Z,28.00
2023-05-12T11:19:58.991Z,31.70
2023-05-12T11:20:58.900Z,69.20
2023-05-12T11:21:58.928Z,52.10
2023-05-12T11:22:58.889Z,44.80
2023-05-12T11:23:58.913Z,42.30
2023-05-12T11:24:58.952Z,39.80
2023-05-12T11:25:58.956Z,31.80
2023-05-12T11:26:58.838Z,37.00
2023-05-12T11:27:58.854Z,31.30
2023-05-12T11:28:58.863Z,26.10
2023-05-12T11:29:58.878Z,24.90
2023-05-12T11:30:58.826Z,26.40
2023-05-12T11:31:58.916Z,26.50
2023-05-12T11:32:58.794Z,30.60
2023-05-12T11:34:10.732Z,24.80
2023-05-12T11:34:59.775Z,25.20
2023-05-12T11:35:58.760Z,28.40
2023-05-12T11:36:58.760Z,26.20
2023-05-12T11:37:58.799Z,28.30
2023-05-12T11:38:58.748Z,45.10
2023-05-12T11:39:58.693Z,39.00
2023-05-12T11:40:58.700Z,42.70
2023-05-12T11:42:09.125Z,31.20
2023-05-12T11:42:59.708Z,39.90
2023-05-12T11:43:58.700Z,31.70
2023-05-12T11:44:58.682Z,28.10
2023-05-12T11:45:58.719Z,28.00
2023-05-12T11:46:58.678Z,29.40
2023-05-12T11:47:59.305Z,31.80
2023-05-12T11:48:58.639Z,25.40
2023-05-12T11:49:58.652Z,25.00
2023-05-12T11:50:58.603Z,24.80
2023-05-12T11:51:58.625Z,24.50
2023-05-12T11:52:58.619Z,29.90
2023-05-12T11:53:58.604Z,36.50
2023-05-12T11:54:58.631Z,36.60
2023-05-12T11:55:58.561Z,43.60
2023-05-12T11:56:58.801Z,38.40
2023-05-12T11:57:58.579Z,47.60
2023-05-12T11:58:58.530Z,48.60
2023-05-12T11:59:58.507Z,43.40
2023-05-12T12:00:58.498Z,41.60
2023-05-12T12:01:58.550Z,41.10
2023-05-12T12:02:58.558Z,40.40
2023-05-12T12:03:58.544Z,41.60
2023-05-12T12:04:58.456Z,27.20
2023-05-12T12:05:58.515Z,31.80
2023-05-12T12:06:58.467Z,37.30
2023-05-12T12:07:58.447Z,27.90
2023-05-12T12:08:58.410Z,25.40
2023-05-12T12:09:58.418Z,33.40
2023-05-12T12:10:58.420Z,51.70
2023-05-12T12:11:58.410Z,50.40
2023-05-12T12:12:58.368Z,45.20
2023-05-12T12:13:58.407Z,38.90
2023-05-12T12:14:58.350Z,41.40
2023-05-12T12:15:58.407Z,37.10
2023-05-12T12:16:58.322Z,35.20
2023-05-12T12:17:59.440Z,36.60
2023-05-12T12:18:58.357Z,30.00
2023-05-12T12:19:58.344Z,32.90
2023-05-12T12:20:58.289Z,40.90
2023-05-12T12:21:58.274Z,56.10
2023-05-12T12:22:58.276Z,46.90
2023-05-12T12:23:58.255Z,35.50
2023-05-12T12:24:58.289Z,35.80
2023-05-12T12:25:58.235Z,35.60
2023-05-12T12:26:58.221Z,38.10
2023-05-12T12:27:58.206Z,33.40
2023-05-12T12:28:58.178Z,37.50
2023-05-12T12:29:58.262Z,39.20
2023-05-12T12:30:58.194Z,40.20
2023-05-12T12:31:58.172Z,44.40
2023-05-12T12:32:58.207Z,57.80
2023-05-12T12:33:58.219Z,84.00
2023-05-12T12:34:58.168Z,88.00
2023-05-12T12:35:58.150Z,63.70
2023-05-12T12:36:58.102Z,63.60
2023-05-12T12:37:58.114Z,66.70
2023-05-12T12:38:58.112Z,99.30
2023-05-12T12:39:58.103Z,88.30
2023-05-12T12:40:58.091Z,98.20
2023-05-12T12:41:58.089Z,109.50
2023-05-12T12:42:58.055Z,107.30
2023-05-12T12:43:58.111Z,90.80